Time;durP1;ratioP1;P1;durP2;ratioP2;P2;SDS_P1;SDS_P2;PMS_P1;PMS_P2;Temp;Humidity;BMP_temperature;BMP_pressure;BME280_temperature;BME280_humidity;BME280_pressure;Samples;Min_cycle;Max_cycle;Signal;HPM_P1;HPM_P2
2021/07/12 00:00:51;;;;;;;4.20;2.87;;;;;;;;;;5081186;28;20294;-67
2021/07/12 00:03:19;;;;;;;5.23;2.70;;;;;;;;;;5081161;28;20272;-67
2021/07/12 00:05:47;;;;;;;3.63;2.70;;;;;;;;;;5080521;28;20233;-67
2021/07/12 00:08:15;;;;;;;2.50;2.30;;;;;;;;;;5081129;28;20297;-67
2021/07/12 00:10:43;;;;;;;6.90;2.83;;;;;;;;;;5080699;28;20210;-67
2021/07/12 00:13:11;;;;;;;3.60;2.77;;;;;;;;;;5080781;28;20591;-68
2021/07/12 00:15:41;;;;;;;3.33;3.03;;;;;;;;;;5080837;28;20226;-67
2021/07/12 00:18:09;;;;;;;5.00;2.60;;;;;;;;;;5080782;28;20209;-67
2021/07/12 00:20:37;;;;;;;3.17;2.63;;;;;;;;;;5080460;28;20292;-67
2021/07/12 00:23:05;;;;;;;3.57;2.47;;;;;;;;;;5080455;28;20226;-67
2021/07/12 00:25:33;;;;;;;2.67;2.47;;;;;;;;;;5080713;28;20638;-67
2021/07/12 00:28:01;;;;;;;3.33;2.50;;;;;;;;;;5080697;28;20213;-67
2021/07/12 00:30:29;;;;;;;3.93;2.43;;;;;;;;;;5080506;28;20220;-67
2021/07/12 00:32:59;;;;;;;5.50;2.70;;;;;;;;;;5080542;28;20229;-67
2021/07/12 00:35:27;;;;;;;5.40;3.03;;;;;;;;;;5079912;28;20233;-67
2021/07/12 00:37:55;;;;;;;3.23;2.80;;;;;;;;;;5080564;28;20319;-67
2021/07/12 00:40:25;;;;;;;4.60;2.70;;;;;;;;;;5080449;28;20214;-67
2021/07/12 00:42:53;;;;;;;4.13;2.60;;;;;;;;;;5080162;28;20260;-67
2021/07/12 00:45:22;;;;;;;3.77;2.70;;;;;;;;;;5080477;28;20285;-67
2021/07/12 00:47:51;;;;;;;4.63;2.30;;;;;;;;;;5080359;28;20209;-67
2021/07/12 00:50:21;;;;;;;2.77;2.20;;;;;;;;;;5080128;28;20209;-67
2021/07/12 00:52:50;;;;;;;3.17;2.20;;;;;;;;;;5080570;28;20227;-67
2021/07/12 00:55:20;;;;;;;3.53;2.23;;;;;;;;;;5080053;28;20696;-67
2021/07/12 00:57:48;;;;;;;3.33;2.73;;;;;;;;;;5079794;28;20219;-67
2021/07/12 01:00:18;;;;;;;5.40;2.40;;;;;;;;;;5078904;28;20576;-68
2021/07/12 01:02:47;;;;;;;4.00;2.30;;;;;;;;;;5079848;28;20226;-68
2021/07/12 01:05:16;;;;;;;2.70;2.27;;;;;;;;;;5079465;28;20659;-66
2021/07/12 01:07:45;;;;;;;3.03;2.30;;;;;;;;;;5080124;28;20213;-67
2021/07/12 01:10:14;;;;;;;4.07;2.70;;;;;;;;;;5079888;28;20219;-68
2021/07/12 01:12:44;;;;;;;8.77;3.63;;;;;;;;;;5079653;28;20603;-68
2021/07/12 01:15:13;;;;;;;6.03;3.43;;;;;;;;;;5079828;28;20210;-68
2021/07/12 01:17:50;;;;;;;5.30;3.40;;;;;;;;;;5079631;28;20206;-67
2021/07/12 01:20:45;;;;;;;7.70;4.10;;;;;;;;;;5079402;28;20210;-68
2021/07/12 01:23:22;;;;;;;7.17;3.20;;;;;;;;;;5079654;28;20228;-67
2021/07/12 01:26:24;;;;;;;4.07;3.07;;;;;;;;;;5079550;28;20193;-67
2021/07/12 01:29:01;;;;;;;5.97;3.10;;;;;;;;;;5079594;28;20206;-67
2021/07/12 01:31:53;;;;;;;7.43;2.80;;;;;;;;;;5079208;28;20256;-68
2021/07/12 01:34:29;;;;;;;5.97;2.57;;;;;;;;;;5058715;28;20321;-68
2021/07/12 01:37:00;;;;;;;5.80;2.90;;;;;;;;;;5079437;28;20234;-68
2021/07/12 01:39:30;;;;;;;6.40;2.53;;;;;;;;;;5079296;28;20202;-68
2021/07/12 01:42:01;;;;;;;5.47;2.80;;;;;;;;;;5079354;28;20321;-68
2021/07/12 01:44:34;;;;;;;3.57;2.67;;;;;;;;;;5079021;28;20296;-67
2021/07/12 01:47:05;;;;;;;5.13;2.40;;;;;;;;;;5079505;28;20202;-68
2021/07/12 01:49:37;;;;;;;2.67;2.47;;;;;;;;;;5078578;28;20236;-68
2021/07/12 01:52:08;;;;;;;3.27;2.97;;;;;;;;;;5079119;28;20228;-67
2021/07/12 01:54:38;;;;;;;3.73;2.67;;;;;;;;;;5078652;28;20212;-67
2021/07/12 01:57:07;;;;;;;4.17;2.73;;;;;;;;;;5079180;28;20226;-67
2021/07/12 01:59:39;;;;;;;3.93;2.50;;;;;;;;;;5078990;28;20213;-67
2021/07/12 02:02:08;;;;;;;3.23;2.90;;;;;;;;;;5078862;28;20261;-68
2021/07/12 02:04:38;;;;;;;6.17;2.67;;;;;;;;;;5078358;28;20666;-68
2021/07/12 02:07:07;;;;;;;4.10;2.83;;;;;;;;;;5078811;28;20207;-68
2021/07/12 02:09:35;;;;;;;6.13;2.90;;;;;;;;;;5078095;28;20670;-68
2021/07/12 02:12:03;;;;;;;5.93;2.87;;;;;;;;;;5078276;28;20228;-68
2021/07/12 02:14:32;;;;;;;9.40;2.70;;;;;;;;;;5078740;28;20212;-68
2021/07/12 02:17:01;;;;;;;2.73;2.53;;;;;;;;;;5078295;28;20242;-68
2021/07/12 02:19:31;;;;;;;4.60;2.90;;;;;;;;;;5078307;28;20212;-68
2021/07/12 02:22:01;;;;;;;2.80;2.50;;;;;;;;;;5078446;28;20262;-68
2021/07/12 02:24:30;;;;;;;4.10;2.60;;;;;;;;;;5078437;28;20208;-68
2021/07/12 02:26:58;;;;;;;4.40;2.90;;;;;;;;;;5078380;28;20200;-68
2021/07/12 02:29:27;;;;;;;3.67;2.40;;;;;;;;;;5078428;28;20211;-68
2021/07/12 02:31:56;;;;;;;3.37;2.40;;;;;;;;;;5078332;28;20238;-68
2021/07/12 02:34:24;;;;;;;3.53;2.70;;;;;;;;;;5077725;28;20266;-68
2021/07/12 02:36:53;;;;;;;3.77;2.57;;;;;;;;;;5078323;28;20232;-68
2021/07/12 02:39:22;;;;;;;4.10;2.50;;;;;;;;;;5078268;28;20214;-68
2021/07/12 02:41:51;;;;;;;3.97;2.70;;;;;;;;;;5078195;28;20226;-67
2021/07/12 02:44:20;;;;;;;3.57;2.73;;;;;;;;;;5078224;28;20210;-68
2021/07/12 02:46:48;;;;;;;7.67;3.10;;;;;;;;;;5078209;28;20210;-68
2021/07/12 02:49:16;;;;;;;2.97;2.50;;;;;;;;;;5077537;28;20232;-68
2021/07/12 02:51:45;;;;;;;5.13;2.80;;;;;;;;;;5078056;28;20226;-67
2021/07/12 02:54:15;;;;;;;3.90;2.63;;;;;;;;;;5078091;28;20233;-68
2021/07/12 02:56:44;;;;;;;5.67;2.13;;;;;;;;;;5077736;28;20310;-67
2021/07/12 02:59:12;;;;;;;2.80;2.60;;;;;;;;;;5078049;28;20209;-68
2021/07/12 03:01:40;;;;;;;4.17;2.90;;;;;;;;;;5078392;28;20222;-68
2021/07/12 03:04:08;;;;;;;3.03;2.50;;;;;;;;;;5078931;28;20207;-68
2021/07/12 03:06:36;;;;;;;3.63;2.40;;;;;;;;;;5078050;28;20666;-68
2021/07/12 03:09:05;;;;;;;3.00;2.67;;;;;;;;;;5078024;28;20289;-68
2021/07/12 03:11:35;;;;;;;3.50;2.30;;;;;;;;;;5077401;28;20252;-68
2021/07/12 03:14:10;;;;;;;3.53;2.70;;;;;;;;;;5077891;28;20211;-68
2021/07/12 03:16:38;;;;;;;3.23;2.47;;;;;;;;;;5077481;28;20567;-68
2021/07/12 03:19:09;;;;;;;4.20;3.00;;;;;;;;;;5077594;28;20207;-68
2021/07/12 03:21:40;;;;;;;3.23;2.30;;;;;;;;;;5077810;28;20781;-68
2021/07/12 03:24:09;;;;;;;3.00;2.70;;;;;;;;;;5082064;28;20212;-68
2021/07/12 03:26:40;;;;;;;3.33;2.70;;;;;;;;;;5081764;28;20213;-68
2021/07/12 03:29:10;;;;;;;4.23;2.80;;;;;;;;;;5082003;28;20668;-68
2021/07/12 03:31:39;;;;;;;2.33;2.13;;;;;;;;;;5081703;28;20579;-68
2021/07/12 03:34:08;;;;;;;2.93;2.57;;;;;;;;;;5081104;28;20234;-68
2021/07/12 03:36:36;;;;;;;4.37;2.60;;;;;;;;;;5081630;28;20218;-68
2021/07/12 03:39:04;;;;;;;3.00;2.70;;;;;;;;;;5081743;28;20212;-67
2021/07/12 03:41:32;;;;;;;4.40;2.63;;;;;;;;;;5081089;28;20317;-68
2021/07/12 03:44:00;;;;;;;5.13;2.80;;;;;;;;;;5081523;28;20220;-68
2021/07/12 03:46:30;;;;;;;3.73;2.73;;;;;;;;;;5081558;28;20202;-68
2021/07/12 03:48:58;;;;;;;4.50;2.83;;;;;;;;;;5081275;28;20206;-68
2021/07/12 03:51:27;;;;;;;4.00;2.80;;;;;;;;;;5081425;28;20308;-68
2021/07/12 03:53:56;;;;;;;3.63;2.43;;;;;;;;;;5081108;28;20218;-67
2021/07/12 03:56:24;;;;;;;4.40;2.27;;;;;;;;;;5080940;28;20214;-68
2021/07/12 03:58:52;;;;;;;4.43;2.60;;;;;;;;;;5081240;28;20230;-68
2021/07/12 04:01:21;;;;;;;4.23;2.73;;;;;;;;;;5081172;28;20222;-67
2021/07/12 04:03:52;;;;;;;4.20;2.50;;;;;;;;;;5080745;28;20201;-67
2021/07/12 04:06:20;;;;;;;2.57;2.37;;;;;;;;;;5081153;28;20202;-67
2021/07/12 04:08:48;;;;;;;3.00;2.70;;;;;;;;;;5080946;28;20305;-68
2021/07/12 04:11:16;;;;;;;3.57;2.63;;;;;;;;;;5080728;28;20574;-68
2021/07/12 04:13:46;;;;;;;3.60;2.53;;;;;;;;;;5080664;28;20206;-68
2021/07/12 04:16:15;;;;;;;5.20;2.63;;;;;;;;;;5080811;28;20606;-67
2021/07/12 04:18:43;;;;;;;5.63;2.90;;;;;;;;;;5080505;28;20233;-68
2021/07/12 04:21:13;;;;;;;5.63;2.93;;;;;;;;;;5080569;28;20280;-68
2021/07/12 04:23:41;;;;;;;4.60;2.80;;;;;;;;;;5080561;28;20574;-68
2021/07/12 04:29:37;;;;;;;4.43;2.30;;;;;;;;;;5080573;28;20550;-68
2021/07/12 04:32:06;;;;;;;3.27;2.63;;;;;;;;;;5080561;28;20227;-68
2021/07/12 04:34:34;;;;;;;2.77;2.50;;;;;;;;;;5079952;28;20709;-68
2021/07/12 04:37:04;;;;;;;5.20;2.90;;;;;;;;;;5080554;28;20207;-68
2021/07/12 04:39:32;;;;;;;5.87;2.83;;;;;;;;;;5080443;28;20400;-68
2021/07/12 04:42:03;;;;;;;2.77;2.17;;;;;;;;;;5080492;28;20249;-68
2021/07/12 04:44:31;;;;;;;3.40;2.50;;;;;;;;;;5080194;28;20211;-68
2021/07/12 04:47:00;;;;;;;4.03;2.47;;;;;;;;;;5080530;28;20206;-68
2021/07/12 04:49:29;;;;;;;6.60;2.53;;;;;;;;;;5080041;28;20215;-68
2021/07/12 04:51:57;;;;;;;2.93;2.63;;;;;;;;;;5080350;28;20226;-68
2021/07/12 04:54:26;;;;;;;3.30;2.73;;;;;;;;;;5080070;28;20670;-68
2021/07/12 04:56:54;;;;;;;5.40;2.87;;;;;;;;;;5080159;28;20218;-68
2021/07/12 04:59:25;;;;;;;5.30;3.10;;;;;;;;;;5079850;28;20226;-68
2021/07/12 05:01:53;;;;;;;3.03;2.60;;;;;;;;;;5079811;28;20309;-68
2021/07/12 05:04:22;;;;;;;5.73;2.77;;;;;;;;;;5079841;28;20239;-68
2021/07/12 05:06:50;;;;;;;5.60;3.43;;;;;;;;;;5079738;28;20203;-68
2021/07/12 05:09:18;;;;;;;4.80;2.60;;;;;;;;;;5080087;28;20288;-68
2021/07/12 05:11:49;;;;;;;5.97;2.70;;;;;;;;;;5079324;28;20596;-68
2021/07/12 05:14:17;;;;;;;3.10;2.80;;;;;;;;;;5079966;28;20210;-68
2021/07/12 05:16:45;;;;;;;4.53;2.70;;;;;;;;;;5079875;28;20206;-68
2021/07/12 05:19:14;;;;;;;2.53;2.33;;;;;;;;;;5079415;28;20228;-68
2021/07/12 05:21:45;;;;;;;3.70;2.60;;;;;;;;;;5079679;28;20232;-66
2021/07/12 05:24:14;;;;;;;3.67;2.90;;;;;;;;;;5079508;28;20698;-67
2021/07/12 05:26:42;;;;;;;6.43;3.20;;;;;;;;;;5079538;28;20295;-66
2021/07/12 05:29:12;;;;;;;7.53;3.30;;;;;;;;;;5079970;28;20216;-67
2021/07/12 05:31:40;;;;;;;4.43;2.83;;;;;;;;;;5079714;28;20233;-67
2021/07/12 05:34:08;;;;;;;4.83;2.47;;;;;;;;;;5079455;28;20327;-66
2021/07/12 05:36:36;;;;;;;4.20;2.70;;;;;;;;;;5079223;28;20206;-67
2021/07/12 05:39:04;;;;;;;5.93;3.37;;;;;;;;;;5079160;28;20722;-66
2021/07/12 05:41:32;;;;;;;3.03;2.73;;;;;;;;;;5078960;28;20226;-66
2021/07/12 05:44:00;;;;;;;6.97;3.70;;;;;;;;;;5079137;28;20661;-66
2021/07/12 05:46:29;;;;;;;2.73;2.37;;;;;;;;;;5078471;28;20667;-68
2021/07/12 05:48:57;;;;;;;6.00;2.70;;;;;;;;;;5078898;28;20215;-68
2021/07/12 05:51:25;;;;;;;4.27;2.60;;;;;;;;;;5075791;28;20629;-68
2021/07/12 05:53:54;;;;;;;7.00;2.67;;;;;;;;;;5074882;28;20292;-68
2021/07/12 05:56:21;;;;;;;3.33;2.60;;;;;;;;;;5078950;28;20285;-68
2021/07/12 05:58:49;;;;;;;8.53;2.57;;;;;;;;;;5078721;28;20219;-68
2021/07/12 06:01:17;;;;;;;3.07;2.20;;;;;;;;;;5078746;28;20280;-68
2021/07/12 06:03:47;;;;;;;3.43;2.53;;;;;;;;;;5078203;28;20662;-68
2021/07/12 06:06:15;;;;;;;4.77;2.80;;;;;;;;;;5078762;28;20203;-68
2021/07/12 06:08:43;;;;;;;4.13;2.90;;;;;;;;;;5078287;28;20223;-67
2021/07/12 06:11:16;;;;;;;3.83;2.80;;;;;;;;;;5078492;28;20214;-68
2021/07/12 06:13:43;;;;;;;2.70;2.50;;;;;;;;;;5078165;28;20566;-67
2021/07/12 06:16:11;;;;;;;4.00;3.00;;;;;;;;;;5078417;28;20566;-67
2021/07/12 06:18:40;;;;;;;4.70;2.90;;;;;;;;;;5077968;28;20232;-67
2021/07/12 06:21:09;;;;;;;3.60;2.70;;;;;;;;;;5078196;28;20580;-67
2021/07/12 06:23:37;;;;;;;4.00;2.87;;;;;;;;;;5078630;28;20209;-67
2021/07/12 06:26:05;;;;;;;4.33;2.70;;;;;;;;;;5078137;28;20214;-67
2021/07/12 06:28:33;;;;;;;4.30;2.67;;;;;;;;;;5078518;28;20209;-67
2021/07/12 06:31:01;;;;;;;4.27;2.53;;;;;;;;;;5078137;28;20731;-67
2021/07/12 06:33:29;;;;;;;3.90;2.60;;;;;;;;;;5077581;28;20571;-67
2021/07/12 06:35:57;;;;;;;3.63;2.40;;;;;;;;;;5078104;28;20212;-67
2021/07/12 06:38:26;;;;;;;7.63;3.23;;;;;;;;;;5078165;28;20204;-66
2021/07/12 06:40:54;;;;;;;4.73;2.97;;;;;;;;;;5078190;28;20273;-67
2021/07/12 06:43:22;;;;;;;3.03;2.63;;;;;;;;;;5078372;28;20207;-66
2021/07/12 06:45:50;;;;;;;4.23;2.80;;;;;;;;;;5077928;28;20207;-68
2021/07/12 06:48:18;;;;;;;3.23;2.80;;;;;;;;;;5078004;28;20663;-67
2021/07/12 06:50:46;;;;;;;4.50;2.80;;;;;;;;;;5078464;28;20217;-67
2021/07/12 06:53:34;;;;;;;6.27;3.03;;;;;;;;;;5078807;28;20224;-67
2021/07/12 06:56:03;;;;;;;5.97;3.17;;;;;;;;;;5078379;28;20219;-67
2021/07/12 06:58:31;;;;;;;4.63;2.80;;;;;;;;;;5078428;28;20215;-66
2021/07/12 07:00:59;;;;;;;2.50;2.30;;;;;;;;;;5077892;28;20205;-66
2021/07/12 07:03:27;;;;;;;8.53;2.87;;;;;;;;;;5077523;28;20215;-66
2021/07/12 07:05:55;;;;;;;4.83;2.90;;;;;;;;;;5077814;28;20286;-66
2021/07/12 07:08:23;;;;;;;5.20;2.57;;;;;;;;;;5077751;28;20216;-68
2021/07/12 07:10:52;;;;;;;9.40;2.70;;;;;;;;;;5077914;28;20220;-66
2021/07/12 07:13:20;;;;;;;6.90;2.80;;;;;;;;;;5077762;28;20227;-66
2021/07/12 07:15:48;;;;;;;6.03;2.80;;;;;;;;;;5077644;28;20564;-66
2021/07/12 07:18:16;;;;;;;3.43;2.70;;;;;;;;;;5077281;28;20234;-66
2021/07/12 07:20:44;;;;;;;2.97;2.63;;;;;;;;;;5077802;28;20231;-67
2021/07/12 07:23:12;;;;;;;5.87;2.70;;;;;;;;;;5077500;28;20758;-68
2021/07/12 07:25:40;;;;;;;5.97;2.80;;;;;;;;;;5077293;28;20226;-66
2021/07/12 07:28:10;;;;;;;2.73;2.53;;;;;;;;;;5077733;28;20203;-68
2021/07/12 07:30:39;;;;;;;3.60;3.00;;;;;;;;;;5077564;28;20205;-66
2021/07/12 07:33:07;;;;;;;3.73;2.50;;;;;;;;;;5077818;28;20228;-66
2021/07/12 07:35:35;;;;;;;3.90;2.60;;;;;;;;;;5077533;28;20228;-66
2021/07/12 07:38:03;;;;;;;5.53;2.97;;;;;;;;;;5077769;28;20210;-66
2021/07/12 07:40:31;;;;;;;3.40;2.77;;;;;;;;;;5077615;28;20225;-66
2021/07/12 07:42:59;;;;;;;3.40;2.73;;;;;;;;;;5077455;28;20223;-66
2021/07/12 07:45:29;;;;;;;7.30;2.93;;;;;;;;;;5077443;28;20207;-66
2021/07/12 07:47:57;;;;;;;5.17;2.80;;;;;;;;;;5077174;28;20216;-66
2021/07/12 07:50:25;;;;;;;3.30;2.90;;;;;;;;;;5077312;28;20285;-66
2021/07/12 07:52:53;;;;;;;3.87;2.60;;;;;;;;;;5077403;28;20313;-66
2021/07/12 07:55:21;;;;;;;3.67;2.63;;;;;;;;;;5077465;28;20207;-66
2021/07/12 07:57:50;;;;;;;9.80;3.80;;;;;;;;;;5077260;28;20213;-66
2021/07/12 08:00:18;;;;;;;3.83;2.70;;;;;;;;;;5077073;28;20248;-66
2021/07/12 08:02:48;;;;;;;4.17;2.87;;;;;;;;;;5077467;28;20242;-66
2021/07/12 08:05:16;;;;;;;3.50;2.40;;;;;;;;;;5077338;28;20212;-66
2021/07/12 08:07:44;;;;;;;3.67;2.80;;;;;;;;;;5077469;28;20226;-67
2021/07/12 08:10:14;;;;;;;4.33;2.37;;;;;;;;;;5080953;28;20209;-68
2021/07/12 08:12:42;;;;;;;2.43;2.23;;;;;;;;;;5080956;28;20225;-67
2021/07/12 08:15:11;;;;;;;5.13;2.80;;;;;;;;;;5081298;28;20271;-66
2021/07/12 08:17:40;;;;;;;4.90;2.87;;;;;;;;;;5080775;28;20646;-67
2021/07/12 08:20:11;;;;;;;6.17;2.50;;;;;;;;;;5080420;28;20223;-66
2021/07/12 08:22:46;;;;;;;3.93;2.77;;;;;;;;;;5080906;28;20716;-66
2021/07/12 08:25:14;;;;;;;2.60;2.33;;;;;;;;;;5080342;28;20572;-66
2021/07/12 08:27:42;;;;;;;4.47;3.07;;;;;;;;;;5080713;28;20294;-66
2021/07/12 08:30:11;;;;;;;3.03;2.53;;;;;;;;;;5080769;28;20204;-66
2021/07/12 08:32:40;;;;;;;3.63;2.80;;;;;;;;;;5080617;28;20228;-66
2021/07/12 08:35:08;;;;;;;6.03;2.63;;;;;;;;;;5079936;28;20728;-67
2021/07/12 08:37:38;;;;;;;3.73;2.67;;;;;;;;;;5080624;28;20204;-67
2021/07/12 08:40:07;;;;;;;2.70;2.47;;;;;;;;;;5080216;28;20230;-67
2021/07/12 08:42:35;;;;;;;5.33;2.90;;;;;;;;;;5080321;28;20585;-67
2021/07/12 08:45:04;;;;;;;4.43;2.87;;;;;;;;;;5080571;28;20290;-67
2021/07/12 08:47:32;;;;;;;3.83;2.40;;;;;;;;;;5080427;28;20218;-67
2021/07/12 08:50:00;;;;;;;3.60;2.70;;;;;;;;;;5080090;28;20204;-67
2021/07/12 08:52:28;;;;;;;5.10;2.97;;;;;;;;;;5080369;28;20235;-67
2021/07/12 08:54:57;;;;;;;6.80;2.47;;;;;;;;;;5080145;28;20210;-67
2021/07/12 08:57:25;;;;;;;2.80;2.43;;;;;;;;;;5080325;28;20216;-67
2021/07/12 08:59:55;;;;;;;4.80;2.90;;;;;;;;;;5080255;28;20231;-67
2021/07/12 09:02:23;;;;;;;5.07;3.10;;;;;;;;;;5079859;28;20231;-67
2021/07/12 09:04:52;;;;;;;4.23;3.20;;;;;;;;;;5079662;28;20296;-67
2021/07/12 09:07:21;;;;;;;6.10;2.83;;;;;;;;;;5080112;28;20217;-67
2021/07/12 09:10:00;;;;;;;4.13;2.70;;;;;;;;;;5079908;28;20211;-67
2021/07/12 09:12:38;;;;;;;6.30;2.80;;;;;;;;;;5079906;28;20310;-67
2021/07/12 09:15:07;;;;;;;3.27;2.63;;;;;;;;;;5079645;28;20204;-69
2021/07/12 09:17:36;;;;;;;3.63;3.00;;;;;;;;;;5079599;28;20208;-68
2021/07/12 09:20:06;;;;;;;4.47;2.87;;;;;;;;;;5078026;28;20276;-68
2021/07/12 09:22:34;;;;;;;5.37;2.87;;;;;;;;;;5079553;28;20229;-69
2021/07/12 09:25:06;;;;;;;5.87;2.67;;;;;;;;;;5079326;28;20653;-68
2021/07/12 09:27:35;;;;;;;4.40;3.40;;;;;;;;;;5079652;28;20216;-69
2021/07/12 09:30:05;;;;;;;4.33;3.37;;;;;;;;;;5079353;28;20206;-68
2021/07/12 09:32:34;;;;;;;4.00;3.00;;;;;;;;;;5079594;28;20679;-68
2021/07/12 09:35:06;;;;;;;6.00;3.20;;;;;;;;;;5079005;28;20236;-69
2021/07/12 09:37:34;;;;;;;6.80;3.30;;;;;;;;;;5079745;28;20751;-68
2021/07/12 09:40:05;;;;;;;7.03;3.23;;;;;;;;;;5078896;28;20240;-69
2021/07/12 09:42:33;;;;;;;5.57;3.27;;;;;;;;;;5079270;28;20696;-69
2021/07/12 09:45:02;;;;;;;5.87;3.50;;;;;;;;;;5079129;28;20238;-69
2021/07/12 09:47:32;;;;;;;6.50;3.47;;;;;;;;;;5078997;28;20234;-69
2021/07/12 09:50:01;;;;;;;5.93;3.60;;;;;;;;;;5078978;28;20205;-69
2021/07/12 09:52:38;;;;;;;5.50;3.50;;;;;;;;;;5078905;28;20229;-68
2021/07/12 09:55:08;;;;;;;4.17;3.60;;;;;;;;;;5079044;28;20216;-69
2021/07/12 09:57:36;;;;;;;9.07;3.50;;;;;;;;;;5079129;28;20218;-69
2021/07/12 10:00:06;;;;;;;4.77;3.50;;;;;;;;;;5079028;28;20202;-69
2021/07/12 10:02:35;;;;;;;5.40;3.47;;;;;;;;;;5079141;28;20229;-68
2021/07/12 10:05:04;;;;;;;6.40;3.50;;;;;;;;;;5078661;28;20210;-69
2021/07/12 10:07:32;;;;;;;6.50;4.10;;;;;;;;;;5078614;28;20289;-68
2021/07/12 10:10:01;;;;;;;6.87;4.33;;;;;;;;;;5078607;28;20202;-68
2021/07/12 10:12:31;;;;;;;5.10;3.63;;;;;;;;;;5078674;28;20311;-69
2021/07/12 10:14:59;;;;;;;6.23;3.60;;;;;;;;;;5078484;28;20573;-68
2021/07/12 10:17:27;;;;;;;5.33;3.90;;;;;;;;;;5078494;28;20231;-69
2021/07/12 10:19:56;;;;;;;5.43;3.40;;;;;;;;;;5078001;28;20212;-69
2021/07/12 10:22:25;;;;;;;9.27;4.17;;;;;;;;;;5078414;28;20594;-69
2021/07/12 10:24:53;;;;;;;3.87;3.57;;;;;;;;;;5078112;28;20635;-68
2021/07/12 10:27:22;;;;;;;7.47;3.93;;;;;;;;;;5078374;28;20205;-69
2021/07/12 10:29:52;;;;;;;5.63;3.20;;;;;;;;;;5078483;28;20212;-69
2021/07/12 10:32:21;;;;;;;6.90;3.20;;;;;;;;;;5078098;28;20220;-69
2021/07/12 10:34:49;;;;;;;8.57;3.33;;;;;;;;;;5077799;28;20235;-68
2021/07/12 10:37:26;;;;;;;3.77;2.93;;;;;;;;;;5078147;28;20212;-68
2021/07/12 10:40:21;;;;;;;7.50;2.77;;;;;;;;;;5078471;28;20216;-69
2021/07/12 10:42:51;;;;;;;3.63;3.10;;;;;;;;;;5079332;28;20229;-68
2021/07/12 10:45:21;;;;;;;5.23;2.20;;;;;;;;;;5078579;28;20234;-69
2021/07/12 10:47:49;;;;;;;3.17;2.77;;;;;;;;;;5078448;28;20210;-68
2021/07/12 10:50:36;;;;;;;5.07;2.50;;;;;;;;;;5078120;28;20212;-68
2021/07/12 10:53:20;;;;;;;5.13;3.17;;;;;;;;;;5078102;28;20225;-68
2021/07/12 10:56:03;;;;;;;6.07;2.73;;;;;;;;;;5077809;28;20218;-69
2021/07/12 10:58:42;;;;;;;4.87;3.20;;;;;;;;;;5078087;28;20291;-69
2021/07/12 11:01:16;;;;;;;8.73;3.03;;;;;;;;;;5077925;28;20317;-69
2021/07/12 11:03:45;;;;;;;4.97;3.03;;;;;;;;;;5077867;28;20204;-68
2021/07/12 11:06:15;;;;;;;6.40;3.60;;;;;;;;;;5077783;28;20698;-69
2021/07/12 11:08:43;;;;;;;5.60;3.53;;;;;;;;;;5077958;28;20289;-69
2021/07/12 11:11:12;;;;;;;8.83;3.80;;;;;;;;;;5077530;28;20612;-69
2021/07/12 11:13:49;;;;;;;6.17;4.13;;;;;;;;;;5077812;28;20291;-68
2021/07/12 11:16:19;;;;;;;8.63;4.03;;;;;;;;;;5078201;28;20213;-69
2021/07/12 11:18:48;;;;;;;6.03;3.17;;;;;;;;;;5077301;28;20681;-68
2021/07/12 11:21:16;;;;;;;8.10;3.60;;;;;;;;;;5077360;28;20237;-69
2021/07/12 11:23:44;;;;;;;5.23;3.70;;;;;;;;;;5077515;28;20304;-68
2021/07/12 11:26:31;;;;;;;6.73;3.30;;;;;;;;;;5077713;28;20200;-68
2021/07/12 11:28:59;;;;;;;4.87;3.23;;;;;;;;;;5077717;28;20274;-68
2021/07/12 11:31:42;;;;;;;6.13;3.07;;;;;;;;;;5077893;28;20236;-69
2021/07/12 11:34:13;;;;;;;4.90;3.23;;;;;;;;;;5077478;28;20583;-69
2021/07/12 11:36:47;;;;;;;8.30;3.43;;;;;;;;;;5077914;28;20220;-68
2021/07/12 11:39:37;;;;;;;3.70;2.80;;;;;;;;;;5077467;28;20208;-68
2021/07/12 11:42:12;;;;;;;5.50;3.20;;;;;;;;;;5077368;28;20601;-69
2021/07/12 11:44:45;;;;;;;3.73;2.93;;;;;;;;;;5081033;28;20208;-68
2021/07/12 11:47:18;;;;;;;6.10;2.87;;;;;;;;;;5081576;28;20202;-68
2021/07/12 11:49:50;;;;;;;5.53;3.50;;;;;;;;;;5081166;28;20690;-69
2021/07/12 11:52:18;;;;;;;4.97;3.10;;;;;;;;;;5081554;28;20690;-68
2021/07/12 11:54:46;;;;;;;7.50;3.37;;;;;;;;;;5081362;28;20217;-68
2021/07/12 11:57:15;;;;;;;5.97;3.63;;;;;;;;;;5081487;28;20211;-69
2021/07/12 11:59:45;;;;;;;4.00;3.60;;;;;;;;;;5081357;28;20217;-68
2021/07/12 12:02:14;;;;;;;7.20;3.50;;;;;;;;;;5080857;28;20728;-68
2021/07/12 12:04:44;;;;;;;6.40;3.70;;;;;;;;;;5080629;28;20269;-69
2021/07/12 12:07:22;;;;;;;6.70;3.73;;;;;;;;;;5080934;28;20565;-69
2021/07/12 12:09:51;;;;;;;8.53;4.00;;;;;;;;;;5080686;28;20216;-69
2021/07/12 12:12:26;;;;;;;7.00;4.20;;;;;;;;;;5080841;28;20233;-69
2021/07/12 12:14:58;;;;;;;5.23;4.00;;;;;;;;;;5081005;28;20674;-69
2021/07/12 12:17:26;;;;;;;6.07;3.70;;;;;;;;;;5081098;28;20275;-69
2021/07/12 12:20:10;;;;;;;5.77;3.63;;;;;;;;;;5080238;28;20206;-69
2021/07/12 12:22:38;;;;;;;8.20;3.77;;;;;;;;;;5080589;28;20703;-68
2021/07/12 12:25:07;;;;;;;5.30;3.30;;;;;;;;;;5080652;28;20194;-69
2021/07/12 12:27:38;;;;;;;5.57;2.93;;;;;;;;;;5080905;28;20207;-69
2021/07/12 12:30:08;;;;;;;8.37;4.37;;;;;;;;;;5080553;28;20259;-69
2021/07/12 12:32:36;;;;;;;8.60;3.67;;;;;;;;;;5080726;28;20229;-69
2021/07/12 12:35:05;;;;;;;10.03;3.80;;;;;;;;;;5080074;28;20307;-69
2021/07/12 12:37:35;;;;;;;5.43;3.60;;;;;;;;;;5080465;28;20206;-69
2021/07/12 12:40:15;;;;;;;6.23;3.43;;;;;;;;;;5080606;28;20725;-69
2021/07/12 12:42:43;;;;;;;6.13;3.33;;;;;;;;;;5080545;28;20234;-69
2021/07/12 12:45:32;;;;;;;5.77;4.20;;;;;;;;;;5080390;28;20576;-68
2021/07/12 12:48:00;;;;;;;4.60;4.10;;;;;;;;;;5079755;28;20232;-68
2021/07/12 12:50:28;;;;;;;6.20;3.53;;;;;;;;;;5080441;28;20206;-69
2021/07/12 12:53:07;;;;;;;7.17;3.50;;;;;;;;;;5080109;28;20607;-69
2021/07/12 12:55:35;;;;;;;4.30;3.40;;;;;;;;;;5080078;28;20206;-69
2021/07/12 12:58:07;;;;;;;5.57;3.77;;;;;;;;;;5080351;28;20206;-69
2021/07/12 13:00:35;;;;;;;5.43;3.43;;;;;;;;;;5080039;28;20215;-69
2021/07/12 13:03:03;;;;;;;5.87;3.70;;;;;;;;;;5079631;28;20230;-68
2021/07/12 13:05:31;;;;;;;7.37;4.13;;;;;;;;;;5080041;28;20206;-69
2021/07/12 13:08:04;;;;;;;7.13;3.77;;;;;;;;;;5079882;28;20202;-69
2021/07/12 13:10:35;;;;;;;7.97;3.20;;;;;;;;;;5079909;28;20223;-69
2021/07/12 13:13:05;;;;;;;9.50;3.07;;;;;;;;;;5079770;28;20685;-68
2021/07/12 13:15:34;;;;;;;8.07;3.47;;;;;;;;;;5079803;28;20233;-68
2021/07/12 13:18:05;;;;;;;4.60;3.63;;;;;;;;;;5079648;28;20210;-68
2021/07/12 13:20:34;;;;;;;7.63;3.90;;;;;;;;;;5079520;28;20203;-69
2021/07/12 13:23:03;;;;;;;4.50;3.40;;;;;;;;;;5079467;28;20315;-68
2021/07/12 13:25:32;;;;;;;5.63;3.60;;;;;;;;;;5079499;28;20285;-68
2021/07/12 13:28:03;;;;;;;5.80;3.93;;;;;;;;;;5079635;28;20817;-68
2021/07/12 13:30:32;;;;;;;4.60;3.33;;;;;;;;;;5079661;28;20288;-68
2021/07/12 13:33:00;;;;;;;5.60;3.50;;;;;;;;;;5078867;28;20226;-68
2021/07/12 13:35:29;;;;;;;6.37;3.43;;;;;;;;;;5079200;28;20317;-68
2021/07/12 13:37:58;;;;;;;6.83;3.50;;;;;;;;;;5079499;28;20205;-68
2021/07/12 13:40:26;;;;;;;8.27;3.53;;;;;;;;;;5079205;28;20210;-68
2021/07/12 13:42:55;;;;;;;5.60;3.60;;;;;;;;;;5079262;28;20237;-69
2021/07/12 13:45:25;;;;;;;5.40;3.70;;;;;;;;;;5079169;28;20576;-69
2021/07/12 13:47:53;;;;;;;5.17;3.23;;;;;;;;;;5078884;28;20209;-66
2021/07/12 13:50:26;;;;;;;3.90;3.37;;;;;;;;;;5079615;28;20212;-68
2021/07/12 13:52:54;;;;;;;3.93;3.23;;;;;;;;;;5079936;28;20228;-68
2021/07/12 13:55:23;;;;;;;3.97;3.20;;;;;;;;;;5079074;28;20315;-68
2021/07/12 13:57:52;;;;;;;5.13;3.80;;;;;;;;;;5078553;28;20628;-68
2021/07/12 14:00:22;;;;;;;3.90;3.60;;;;;;;;;;5078338;28;20307;-68
2021/07/12 14:02:51;;;;;;;4.30;3.07;;;;;;;;;;5078102;28;20605;-68
2021/07/12 14:05:19;;;;;;;6.27;3.03;;;;;;;;;;5077657;28;20212;-68
2021/07/12 14:07:47;;;;;;;4.70;2.40;;;;;;;;;;5078220;28;20208;-68
2021/07/12 14:10:16;;;;;;;3.17;2.87;;;;;;;;;;5078085;28;20287;-68
2021/07/12 14:12:45;;;;;;;4.03;2.70;;;;;;;;;;5078053;28;20733;-68
2021/07/12 14:15:15;;;;;;;3.97;2.70;;;;;;;;;;5078354;28;20681;-67
2021/07/12 14:17:43;;;;;;;3.33;2.50;;;;;;;;;;5078837;28;20593;-67
2021/07/12 14:20:13;;;;;;;3.30;3.10;;;;;;;;;;5078212;28;20701;-66
2021/07/12 14:22:42;;;;;;;2.87;2.30;;;;;;;;;;5078468;28;20232;-68
2021/07/12 14:25:11;;;;;;;3.97;2.90;;;;;;;;;;5078132;28;20237;-67
2021/07/12 14:27:39;;;;;;;3.07;2.77;;;;;;;;;;5078463;28;20218;-68
2021/07/12 14:30:09;;;;;;;2.90;2.60;;;;;;;;;;5078407;28;20213;-66
2021/07/12 14:32:37;;;;;;;4.10;2.50;;;;;;;;;;5078516;28;20224;-68
2021/07/12 14:35:05;;;;;;;4.50;3.17;;;;;;;;;;5077781;28;20243;-66
2021/07/12 14:37:34;;;;;;;2.10;1.93;;;;;;;;;;5078695;28;20578;-67
2021/07/12 14:40:03;;;;;;;3.47;1.90;;;;;;;;;;5078631;28;20203;-66
2021/07/12 14:42:31;;;;;;;3.70;2.20;;;;;;;;;;5078061;28;20228;-67
2021/07/12 14:44:59;;;;;;;1.97;1.70;;;;;;;;;;5078292;28;20210;-66
2021/07/12 14:47:27;;;;;;;2.03;1.70;;;;;;;;;;5078196;28;20210;-67
2021/07/12 14:49:55;;;;;;;2.00;1.90;;;;;;;;;;5077877;28;20208;-67
2021/07/12 14:52:23;;;;;;;1.70;1.60;;;;;;;;;;5078114;28;20223;-66
2021/07/12 14:54:52;;;;;;;2.20;2.00;;;;;;;;;;5078108;28;20204;-68
2021/07/12 14:57:20;;;;;;;4.70;2.47;;;;;;;;;;5078248;28;21653;-67
2021/07/12 14:59:48;;;;;;;3.10;2.07;;;;;;;;;;5078789;28;20672;-67
2021/07/12 15:02:16;;;;;;;2.40;1.80;;;;;;;;;;5078529;28;20231;-67